Coracao de Maria, Brazil
Current Conditions -  °F | °C
As of 12:40 PM on Friday 19 Dec 2014 (Local Time) from SBSV Reporting Station
Moderate Rain Moderate Rain  
Wind Chill: 77°   Ceiling: 700
Heat Index: 78°   Visibility: 1.2mi
Dew Point: 72°   Wind: 17mph
Humidity: 83%   Direction: 80°E
Pressure: 29.88"   Gusts: NA
Location:  12.23°S, 38.75°W
Report Text: SBSV 191540Z 08015KT 2000 RA BR BKN007 BKN015 FEW020TCU OVC070 25/22 Q1012
Loading
Personal Weather Stations






























Interactive Weather Map New forecast layout! Learn more

10-Day Weather Forecast

Advertisements
Track Severe Weather on mobile